createdAt,value
2023-08-14T00:20:05.178Z,2.60
2023-08-14T00:25:59.812Z,2.30
2023-08-14T00:44:45.779Z,2.20
2023-08-14T00:47:31.149Z,2.20
2023-08-14T00:50:19.024Z,2.70
2023-08-14T00:59:12.939Z,2.40
2023-08-14T01:01:58.623Z,2.40
2023-08-14T01:04:43.969Z,2.10
2023-08-14T01:07:31.809Z,2.60
2023-08-14T01:10:20.742Z,2.50
2023-08-14T01:13:19.531Z,2.30
2023-08-14T01:16:12.604Z,2.30
2023-08-14T01:18:59.982Z,2.60
2023-08-14T01:30:26.911Z,2.50
2023-08-14T01:39:05.835Z,2.70
2023-08-14T01:42:12.663Z,2.30
2023-08-14T02:13:10.797Z,2.40
2023-08-14T02:29:12.709Z,2.20
2023-08-14T02:45:04.342Z,3.00
2023-08-14T02:47:49.697Z,2.50
2023-08-14T03:16:13.172Z,2.40
2023-08-14T03:25:44.568Z,2.50
2023-08-14T03:28:29.376Z,2.60
2023-08-14T03:31:16.111Z,2.00
2023-08-14T03:34:01.654Z,1.70
2023-08-14T03:36:46.849Z,1.70
2023-08-14T03:42:47.726Z,1.80
2023-08-14T03:48:16.370Z,1.70
2023-08-14T03:51:01.601Z,1.70
2023-08-14T04:09:39.926Z,1.70
2023-08-14T04:12:25.884Z,1.80
2023-08-14T04:21:33.934Z,1.70
2023-08-14T04:24:19.485Z,1.60
2023-08-14T04:27:04.745Z,1.60
2023-08-14T04:33:06.031Z,1.30
2023-08-14T04:38:52.686Z,1.80
2023-08-14T04:41:37.663Z,1.70
2023-08-14T04:50:31.208Z,1.70
2023-08-14T04:56:33.231Z,1.90
2023-08-14T04:59:18.621Z,1.70
2023-08-14T05:02:04.645Z,2.20
2023-08-14T05:04:50.608Z,1.80
2023-08-14T05:07:35.774Z,1.90
2023-08-14T05:37:29.944Z,2.50
2023-08-14T05:40:15.294Z,1.90
2023-08-14T05:45:50.597Z,2.30
2023-08-14T05:55:06.915Z,2.00
2023-08-14T05:57:52.237Z,2.10
2023-08-14T06:00:38.676Z,2.00
2023-08-14T06:09:40.877Z,2.40
2023-08-14T06:12:26.728Z,2.60
2023-08-14T06:15:12.790Z,2.50
2023-08-14T06:24:23.339Z,2.60
2023-08-14T06:27:08.811Z,2.50
2023-08-14T06:32:33.868Z,2.30
2023-08-14T06:38:35.693Z,2.00
2023-08-14T06:44:11.800Z,1.90
2023-08-14T06:46:57.549Z,2.00
2023-08-14T06:52:58.652Z,2.10
2023-08-14T07:19:32.885Z,2.20
2023-08-14T07:22:19.553Z,1.80
2023-08-14T07:25:06.351Z,1.50
2023-08-14T07:27:51.532Z,1.90
2023-08-14T07:30:38.333Z,1.70
2023-08-14T07:33:23.305Z,1.50
2023-08-14T07:36:08.373Z,1.90
2023-08-14T07:38:53.779Z,1.90
2023-08-14T07:41:38.923Z,2.00
2023-08-14T07:44:23.753Z,1.80
2023-08-14T07:47:09.231Z,1.80
2023-08-14T07:49:54.446Z,2.00
2023-08-14T07:52:40.038Z,2.10
2023-08-14T07:55:24.914Z,1.90
2023-08-14T07:58:10.259Z,2.00
2023-08-14T08:00:56.397Z,2.50
2023-08-14T08:03:41.766Z,1.90
2023-08-14T08:09:13.044Z,2.30
2023-08-14T08:11:58.377Z,1.90
2023-08-14T08:14:43.550Z,1.90
2023-08-14T08:17:28.846Z,1.90
2023-08-14T08:20:13.916Z,1.70
2023-08-14T08:22:59.125Z,1.60
2023-08-14T08:25:44.185Z,1.50
2023-08-14T08:28:30.015Z,1.60
2023-08-14T08:31:18.130Z,2.00
2023-08-14T08:34:03.747Z,1.90
2023-08-14T10:17:16.972Z,2.00
2023-08-14T11:05:38.683Z,1.90
2023-08-14T11:18:24.681Z,1.80
2023-08-14T12:12:39.624Z,2.00
2023-08-14T12:44:33.774Z,1.50
2023-08-14T12:47:19.178Z,2.10
2023-08-14T13:06:21.152Z,2.20
2023-08-14T13:09:07.435Z,1.40
2023-08-14T13:15:32.484Z,1.80
2023-08-14T13:18:17.719Z,2.70
2023-08-14T13:46:49.772Z,1.80
2023-08-14T13:52:36.424Z,1.40
2023-08-14T14:04:53.028Z,1.50
2023-08-14T14:37:32.668Z,1.70
2023-08-14T14:40:17.664Z,1.40
2023-08-14T15:12:07.592Z,1.70
2023-08-14T15:18:11.999Z,1.40
2023-08-14T15:33:46.150Z,1.90
2023-08-14T15:40:12.399Z,1.60
2023-08-14T16:37:08.184Z,1.90
2023-08-14T17:02:40.662Z,2.10
2023-08-14T17:05:25.944Z,2.10
2023-08-14T17:08:11.602Z,2.20
2023-08-14T17:11:01.505Z,2.40
2023-08-14T17:31:08.883Z,1.80
2023-08-14T17:40:00.761Z,2.10
2023-08-14T17:42:47.384Z,2.20
2023-08-14T17:45:34.007Z,1.90
2023-08-14T17:48:23.858Z,2.10
2023-08-14T17:51:08.954Z,2.20
2023-08-14T17:53:54.471Z,2.30
2023-08-14T17:56:39.946Z,3.20
2023-08-14T17:59:25.082Z,2.60
2023-08-14T18:02:10.258Z,2.50
2023-08-14T18:04:55.428Z,2.20
2023-08-14T18:07:42.500Z,2.10
2023-08-14T18:10:29.937Z,2.20
2023-08-14T18:14:04.584Z,2.60
2023-08-14T18:16:51.286Z,2.20
2023-08-14T18:50:26.548Z,2.50
2023-08-14T18:53:15.391Z,2.40
2023-08-14T18:56:02.655Z,2.90
2023-08-14T18:58:51.694Z,2.80
2023-08-14T19:01:39.683Z,2.90
2023-08-14T19:04:40.908Z,2.60
2023-08-14T19:08:21.412Z,2.70
2023-08-14T19:11:08.388Z,2.70
2023-08-14T19:14:01.480Z,2.60
2023-08-14T19:16:47.117Z,3.00
2023-08-14T19:19:33.781Z,5.20
2023-08-14T19:22:19.532Z,3.70
2023-08-14T19:25:08.805Z,3.20
2023-08-14T19:27:56.724Z,3.10
2023-08-14T19:30:45.238Z,3.20
2023-08-14T19:33:30.879Z,3.00
2023-08-14T19:36:16.266Z,3.50
2023-08-14T19:39:06.316Z,4.10
2023-08-14T19:41:51.488Z,4.10
2023-08-14T19:44:37.069Z,3.50
2023-08-14T19:47:22.730Z,3.20
2023-08-14T19:50:08.599Z,3.20
2023-08-14T19:52:56.313Z,3.50
2023-08-14T19:55:42.064Z,3.40
2023-08-14T19:58:27.995Z,3.40
2023-08-14T20:01:15.932Z,3.20
2023-08-14T20:04:01.938Z,3.50
2023-08-14T20:06:47.632Z,3.40
2023-08-14T20:09:33.461Z,3.10
2023-08-14T20:12:19.655Z,3.00
2023-08-14T20:15:08.446Z,3.40
2023-08-14T20:17:53.946Z,3.60
2023-08-14T20:20:41.393Z,3.80
2023-08-14T20:23:28.389Z,3.50
2023-08-14T20:26:13.505Z,3.40
2023-08-14T20:28:58.904Z,3.30
2023-08-14T20:31:44.506Z,3.70
2023-08-14T20:34:29.796Z,4.10
2023-08-14T20:37:15.234Z,3.90
2023-08-14T20:40:01.729Z,4.30
2023-08-14T20:42:47.286Z,4.30
2023-08-14T20:45:40.701Z,4.80
2023-08-14T20:48:26.088Z,4.70
2023-08-14T20:51:13.039Z,4.00
2023-08-14T20:54:01.877Z,4.60
2023-08-14T20:56:47.675Z,3.90
2023-08-14T20:59:33.235Z,3.80
2023-08-14T21:02:19.119Z,3.60
2023-08-14T21:05:05.427Z,3.30
2023-08-14T21:07:54.054Z,3.80
2023-08-14T21:10:40.344Z,3.60
2023-08-14T21:13:26.827Z,3.20
2023-08-14T21:16:13.693Z,3.70
2023-08-14T21:19:00.322Z,3.90
2023-08-14T21:21:46.482Z,3.50
2023-08-14T21:24:32.243Z,3.60
2023-08-14T21:27:19.198Z,3.60
2023-08-14T21:30:07.199Z,4.00
2023-08-14T21:32:53.024Z,4.10
2023-08-14T21:35:40.331Z,3.70
2023-08-14T21:38:28.899Z,4.10
2023-08-14T21:41:14.019Z,4.20
2023-08-14T21:43:59.408Z,3.20
2023-08-14T21:46:45.800Z,3.50
2023-08-14T21:49:32.608Z,3.70
2023-08-14T21:52:18.014Z,3.70
2023-08-14T21:55:03.298Z,3.90
2023-08-14T21:57:48.452Z,3.60
2023-08-14T22:00:35.584Z,3.50
2023-08-14T22:03:20.624Z,3.70
2023-08-14T22:06:06.311Z,4.20
2023-08-14T22:08:51.471Z,3.90
2023-08-14T22:11:36.696Z,4.00
2023-08-14T22:14:22.126Z,4.20
2023-08-14T22:17:07.292Z,3.40
2023-08-14T22:19:52.398Z,4.20
2023-08-14T22:22:43.438Z,4.60
2023-08-14T22:25:28.750Z,4.20
2023-08-14T22:28:23.871Z,3.90
2023-08-14T22:31:18.547Z,4.50
2023-08-14T22:34:07.151Z,3.90
2023-08-14T22:36:52.292Z,4.10
2023-08-14T22:39:38.480Z,4.90
2023-08-14T22:42:23.800Z,3.90
2023-08-14T22:45:11.791Z,4.00
2023-08-14T22:47:56.908Z,3.70
2023-08-14T22:50:44.912Z,4.00
2023-08-14T22:53:31.968Z,3.80
2023-08-14T22:56:17.373Z,3.90
2023-08-14T22:59:02.590Z,4.00
2023-08-14T23:01:48.015Z,3.90
2023-08-14T23:04:33.513Z,3.40
2023-08-14T23:07:18.849Z,3.60
2023-08-14T23:10:10.253Z,3.80
2023-08-14T23:12:55.430Z,3.60
2023-08-14T23:15:41.226Z,3.40
2023-08-14T23:18:26.658Z,3.20
2023-08-14T23:21:11.612Z,3.70
2023-08-14T23:23:57.115Z,3.90
2023-08-14T23:26:42.193Z,3.60
2023-08-14T23:29:27.757Z,3.50
2023-08-14T23:32:13.136Z,4.00
2023-08-14T23:34:58.312Z,3.50
2023-08-14T23:37:43.824Z,3.60
2023-08-14T23:40:29.580Z,3.40
2023-08-14T23:43:15.046Z,3.50
2023-08-14T23:46:00.648Z,3.40
2023-08-14T23:48:45.757Z,3.50
2023-08-14T23:51:30.815Z,3.30
2023-08-14T23:54:16.460Z,3.80
2023-08-14T23:57:01.586Z,3.20
2023-08-14T23:59:46.753Z,3.50
